KBEC/BEC METAR and TAF weather

Enter ICAO airport designator
Station Type Date Time Source
KBEC METAR 2019/04/25 21:55 UTC NOAA

KBEC 252155Z AUTO 34015G23KT 10SM SCT042 OVC050 19/09 A2996 RMK AO2 T01930094


Station Type Date Time Source
KBEC Decoded METAR 2019/04/25 21:55 UTC NOAA

Station name not available
Apr 25, 2019 - 05:55 PM EDT / 2019.04.25 2155 UTC
Wind: from the NNW (340 degrees) at 17 MPH (15 KT) gusting to 26 MPH (23 KT):0
Visibility: 10 mile(s):0
Sky conditions: overcast
Temperature: 66.7 F (19.3 C)
Dew Point: 48.9 F (9.4 C)
Relative Humidity: 52%
Pressure (altimeter): 29.96 in. Hg (1014 hPa)
ob: KBEC 252155Z AUTO 34015G23KT 10SM SCT042 OVC050 19/09 A2996 RMK AO2 T01930094
cycle: 22

Station Type Date Time Source
KBEC TAF UTC NOAA

Error!

Example: see airport list